sensor_id;sensor_type;location;lat;lon;timestamp;P1;durP1;ratioP1;P2;durP2;ratioP2
59161;SDS011;44942;48.936;8.260;2023-02-28T00:00:37;0.95;;;0.80;;
59161;SDS011;44942;48.936;8.260;2023-02-28T00:10:38;2.53;;;0.60;;
59161;SDS011;44942;48.936;8.260;2023-02-28T00:15:39;0.70;;;0.70;;
59161;SDS011;44942;48.936;8.260;2023-02-28T00:20:39;0.83;;;0.80;;
59161;SDS011;44942;48.936;8.260;2023-02-28T00:25:40;0.80;;;0.80;;
59161;SDS011;44942;48.936;8.260;2023-02-28T00:30:40;0.90;;;0.67;;
59161;SDS011;44942;48.936;8.260;2023-02-28T00:35:41;1.23;;;0.70;;
59161;SDS011;44942;48.936;8.260;2023-02-28T00:40:42;0.63;;;0.63;;
59161;SDS011;44942;48.936;8.260;2023-02-28T00:45:43;1.80;;;0.80;;
59161;SDS011;44942;48.936;8.260;2023-02-28T00:50:43;1.15;;;0.80;;
59161;SDS011;44942;48.936;8.260;2023-02-28T00:55:44;0.90;;;0.80;;
59161;SDS011;44942;48.936;8.260;2023-02-28T01:00:44;0.90;;;0.80;;
59161;SDS011;44942;48.936;8.260;2023-02-28T01:05:48;0.80;;;0.70;;
59161;SDS011;44942;48.936;8.260;2023-02-28T01:10:49;0.60;;;0.60;;
59161;SDS011;44942;48.936;8.260;2023-02-28T01:15:51;0.97;;;0.80;;
59161;SDS011;44942;48.936;8.260;2023-02-28T01:20:54;0.88;;;0.82;;
59161;SDS011;44942;48.936;8.260;2023-02-28T01:25:55;0.85;;;0.68;;
59161;SDS011;44942;48.936;8.260;2023-02-28T01:30:55;0.97;;;0.70;;
59161;SDS011;44942;48.936;8.260;2023-02-28T01:35:59;0.70;;;0.70;;
59161;SDS011;44942;48.936;8.260;2023-02-28T01:41:05;0.88;;;0.80;;
59161;SDS011;44942;48.936;8.260;2023-02-28T01:46:06;0.90;;;0.80;;
59161;SDS011;44942;48.936;8.260;2023-02-28T01:51:08;0.70;;;0.70;;
59161;SDS011;44942;48.936;8.260;2023-02-28T01:56:16;1.02;;;0.90;;
59161;SDS011;44942;48.936;8.260;2023-02-28T02:01:20;0.82;;;0.80;;
59161;SDS011;44942;48.936;8.260;2023-02-28T02:06:23;0.88;;;0.80;;
59161;SDS011;44942;48.936;8.260;2023-02-28T02:11:27;0.80;;;0.75;;
59161;SDS011;44942;48.936;8.260;2023-02-28T02:27:39;1.00;;;0.80;;
59161;SDS011;44942;48.936;8.260;2023-02-28T02:49:09;1.65;;;0.70;;
59161;SDS011;44942;48.936;8.260;2023-02-28T02:54:20;1.92;;;0.90;;
59161;SDS011;44942;48.936;8.260;2023-02-28T02:59:28;0.90;;;0.80;;
59161;SDS011;44942;48.936;8.260;2023-02-28T03:04:31;0.85;;;0.80;;
59161;SDS011;44942;48.936;8.260;2023-02-28T03:09:35;1.77;;;0.90;;
59161;SDS011;44942;48.936;8.260;2023-02-28T03:14:54;1.27;;;0.80;;
59161;SDS011;44942;48.936;8.260;2023-02-28T03:20:28;1.00;;;0.80;;
59161;SDS011;44942;48.936;8.260;2023-02-28T03:31:10;0.70;;;0.70;;
59161;SDS011;44942;48.936;8.260;2023-02-28T03:36:35;0.80;;;0.70;;
59161;SDS011;44942;48.936;8.260;2023-02-28T03:41:53;0.88;;;0.80;;
59161;SDS011;44942;48.936;8.260;2023-02-28T03:46:59;1.52;;;1.10;;
59161;SDS011;44942;48.936;8.260;2023-02-28T03:52:07;1.02;;;0.93;;
59161;SDS011;44942;48.936;8.260;2023-02-28T04:02:16;1.10;;;0.70;;
59161;SDS011;44942;48.936;8.260;2023-02-28T04:07:17;1.03;;;0.90;;
59161;SDS011;44942;48.936;8.260;2023-02-28T04:12:17;1.00;;;0.90;;
59161;SDS011;44942;48.936;8.260;2023-02-28T04:17:18;1.13;;;0.90;;
59161;SDS011;44942;48.936;8.260;2023-02-28T04:22:19;0.97;;;0.90;;
59161;SDS011;44942;48.936;8.260;2023-02-28T04:27:19;1.10;;;1.00;;
59161;SDS011;44942;48.936;8.260;2023-02-28T04:32:21;0.80;;;0.80;;
59161;SDS011;44942;48.936;8.260;2023-02-28T04:37:21;1.10;;;0.93;;
59161;SDS011;44942;48.936;8.260;2023-02-28T04:42:27;0.90;;;0.80;;
59161;SDS011;44942;48.936;8.260;2023-02-28T04:47:35;1.05;;;0.90;;
59161;SDS011;44942;48.936;8.260;2023-02-28T04:52:35;1.08;;;0.85;;
59161;SDS011;44942;48.936;8.260;2023-02-28T04:57:36;0.97;;;0.80;;
59161;SDS011;44942;48.936;8.260;2023-02-28T05:02:37;0.97;;;0.80;;
59161;SDS011;44942;48.936;8.260;2023-02-28T05:07:39;1.00;;;0.85;;
59161;SDS011;44942;48.936;8.260;2023-02-28T05:12:40;1.00;;;0.90;;
59161;SDS011;44942;48.936;8.260;2023-02-28T05:17:40;1.10;;;0.90;;
59161;SDS011;44942;48.936;8.260;2023-02-28T05:22:41;1.00;;;0.90;;
59161;SDS011;44942;48.936;8.260;2023-02-28T05:32:44;0.90;;;0.90;;
59161;SDS011;44942;48.936;8.260;2023-02-28T05:37:50;0.73;;;0.73;;
59161;SDS011;44942;48.936;8.260;2023-02-28T05:42:51;1.00;;;0.90;;
59161;SDS011;44942;48.936;8.260;2023-02-28T05:47:55;2.10;;;0.80;;
59161;SDS011;44942;48.936;8.260;2023-02-28T05:52:55;1.40;;;0.85;;
59161;SDS011;44942;48.936;8.260;2023-02-28T05:57:56;1.07;;;0.90;;
59161;SDS011;44942;48.936;8.260;2023-02-28T06:02:57;1.00;;;0.90;;
59161;SDS011;44942;48.936;8.260;2023-02-28T06:08:01;0.93;;;0.80;;
59161;SDS011;44942;48.936;8.260;2023-02-28T06:13:02;2.30;;;1.00;;
59161;SDS011;44942;48.936;8.260;2023-02-28T06:18:04;0.90;;;0.80;;
59161;SDS011;44942;48.936;8.260;2023-02-28T06:23:05;1.20;;;1.10;;
59161;SDS011;44942;48.936;8.260;2023-02-28T06:28:05;0.90;;;0.80;;
59161;SDS011;44942;48.936;8.260;2023-02-28T06:38:30;0.95;;;0.80;;
59161;SDS011;44942;48.936;8.260;2023-02-28T06:43:33;1.40;;;0.95;;
59161;SDS011;44942;48.936;8.260;2023-02-28T06:48:35;7.40;;;3.83;;
59161;SDS011;44942;48.936;8.260;2023-02-28T06:53:36;29.23;;;5.40;;
59161;SDS011;44942;48.936;8.260;2023-02-28T06:58:37;7.43;;;2.40;;
59161;SDS011;44942;48.936;8.260;2023-02-28T07:03:39;6.05;;;1.73;;
59161;SDS011;44942;48.936;8.260;2023-02-28T07:08:39;8.67;;;1.77;;
59161;SDS011;44942;48.936;8.260;2023-02-28T07:13:40;9.75;;;2.10;;
59161;SDS011;44942;48.936;8.260;2023-02-28T07:18:41;8.67;;;1.60;;
59161;SDS011;44942;48.936;8.260;2023-02-28T07:23:42;2.40;;;1.37;;
59161;SDS011;44942;48.936;8.260;2023-02-28T07:28:43;2.83;;;1.40;;
59161;SDS011;44942;48.936;8.260;2023-02-28T07:33:45;3.22;;;1.38;;
59161;SDS011;44942;48.936;8.260;2023-02-28T07:38:46;2.83;;;1.48;;
59161;SDS011;44942;48.936;8.260;2023-02-28T07:43:53;4.57;;;1.20;;
59161;SDS011;44942;48.936;8.260;2023-02-28T07:48:55;4.68;;;1.50;;
59161;SDS011;44942;48.936;8.260;2023-02-28T07:53:59;4.20;;;1.20;;
59161;SDS011;44942;48.936;8.260;2023-02-28T07:58:59;2.40;;;1.30;;
59161;SDS011;44942;48.936;8.260;2023-02-28T08:09:02;3.27;;;1.40;;
59161;SDS011;44942;48.936;8.260;2023-02-28T08:14:02;3.17;;;1.27;;
59161;SDS011;44942;48.936;8.260;2023-02-28T08:19:03;2.17;;;1.20;;
59161;SDS011;44942;48.936;8.260;2023-02-28T08:24:04;2.03;;;1.13;;
59161;SDS011;44942;48.936;8.260;2023-02-28T08:29:05;2.10;;;1.20;;
59161;SDS011;44942;48.936;8.260;2023-02-28T08:34:08;2.30;;;1.10;;
59161;SDS011;44942;48.936;8.260;2023-02-28T08:39:10;5.05;;;1.20;;
59161;SDS011;44942;48.936;8.260;2023-02-28T08:44:11;3.47;;;1.08;;
59161;SDS011;44942;48.936;8.260;2023-02-28T08:49:12;1.93;;;1.30;;
59161;SDS011;44942;48.936;8.260;2023-02-28T08:54:13;1.27;;;1.10;;
59161;SDS011;44942;48.936;8.260;2023-02-28T08:59:16;3.95;;;1.00;;
59161;SDS011;44942;48.936;8.260;2023-02-28T09:04:16;1.87;;;1.33;;
59161;SDS011;44942;48.936;8.260;2023-02-28T09:09:17;1.30;;;1.20;;
59161;SDS011;44942;48.936;8.260;2023-02-28T09:14:17;2.00;;;1.20;;
59161;SDS011;44942;48.936;8.260;2023-02-28T09:19:18;2.60;;;1.30;;
59161;SDS011;44942;48.936;8.260;2023-02-28T09:24:19;1.53;;;1.23;;
59161;SDS011;44942;48.936;8.260;2023-02-28T09:29:20;4.13;;;1.50;;
59161;SDS011;44942;48.936;8.260;2023-02-28T09:34:21;2.80;;;1.40;;
59161;SDS011;44942;48.936;8.260;2023-02-28T09:39:22;3.93;;;1.43;;
59161;SDS011;44942;48.936;8.260;2023-02-28T09:49:44;1.77;;;1.40;;
59161;SDS011;44942;48.936;8.260;2023-02-28T09:54:46;2.17;;;1.48;;
59161;SDS011;44942;48.936;8.260;2023-02-28T10:05:36;1.85;;;1.30;;
59161;SDS011;44942;48.936;8.260;2023-02-28T10:10:45;1.53;;;1.23;;
59161;SDS011;44942;48.936;8.260;2023-02-28T10:15:47;2.38;;;1.40;;
59161;SDS011;44942;48.936;8.260;2023-02-28T10:20:51;2.55;;;1.60;;
59161;SDS011;44942;48.936;8.260;2023-02-28T10:26:00;1.75;;;1.50;;
59161;SDS011;44942;48.936;8.260;2023-02-28T10:31:05;1.52;;;1.30;;
59161;SDS011;44942;48.936;8.260;2023-02-28T10:36:15;1.38;;;1.27;;
59161;SDS011;44942;48.936;8.260;2023-02-28T10:41:30;2.30;;;1.42;;
59161;SDS011;44942;48.936;8.260;2023-02-28T10:46:36;3.28;;;1.60;;
59161;SDS011;44942;48.936;8.260;2023-02-28T10:51:39;1.75;;;1.25;;
59161;SDS011;44942;48.936;8.260;2023-02-28T10:56:41;1.75;;;1.35;;
59161;SDS011;44942;48.936;8.260;2023-02-28T11:01:43;1.63;;;1.50;;
59161;SDS011;44942;48.936;8.260;2023-02-28T11:06:45;1.48;;;1.38;;
59161;SDS011;44942;48.936;8.260;2023-02-28T11:11:46;1.85;;;1.50;;
59161;SDS011;44942;48.936;8.260;2023-02-28T11:16:48;1.40;;;1.30;;
59161;SDS011;44942;48.936;8.260;2023-02-28T11:21:57;2.70;;;1.50;;
59161;SDS011;44942;48.936;8.260;2023-02-28T11:27:00;1.40;;;1.30;;
59161;SDS011;44942;48.936;8.260;2023-02-28T11:32:16;1.70;;;1.43;;
59161;SDS011;44942;48.936;8.260;2023-02-28T11:37:24;2.95;;;1.50;;
59161;SDS011;44942;48.936;8.260;2023-02-28T11:48:04;1.90;;;1.45;;
59161;SDS011;44942;48.936;8.260;2023-02-28T11:59:01;2.15;;;1.58;;
59161;SDS011;44942;48.936;8.260;2023-02-28T12:14:24;2.58;;;1.60;;
59161;SDS011;44942;48.936;8.260;2023-02-28T12:19:48;3.15;;;1.50;;
59161;SDS011;44942;48.936;8.260;2023-02-28T12:30:30;2.00;;;1.63;;
59161;SDS011;44942;48.936;8.260;2023-02-28T12:35:34;1.90;;;1.60;;
59161;SDS011;44942;48.936;8.260;2023-02-28T12:41:00;1.50;;;1.40;;
59161;SDS011;44942;48.936;8.260;2023-02-28T12:46:12;2.30;;;1.50;;
59161;SDS011;44942;48.936;8.260;2023-02-28T12:51:44;2.78;;;1.40;;
59161;SDS011;44942;48.936;8.260;2023-02-28T12:56:53;1.58;;;1.38;;
59161;SDS011;44942;48.936;8.260;2023-02-28T13:13:20;2.17;;;1.80;;
59161;SDS011;44942;48.936;8.260;2023-02-28T13:18:27;1.75;;;1.60;;
59161;SDS011;44942;48.936;8.260;2023-02-28T13:23:37;2.38;;;1.85;;
59161;SDS011;44942;48.936;8.260;2023-02-28T13:39:02;1.65;;;1.50;;
59161;SDS011;44942;48.936;8.260;2023-02-28T13:44:23;1.92;;;1.60;;
59161;SDS011;44942;48.936;8.260;2023-02-28T13:49:27;2.65;;;1.70;;
59161;SDS011;44942;48.936;8.260;2023-02-28T14:05:31;2.58;;;1.58;;
59161;SDS011;44942;48.936;8.260;2023-02-28T14:10:39;2.05;;;1.80;;
59161;SDS011;44942;48.936;8.260;2023-02-28T14:15:45;2.03;;;1.50;;
59161;SDS011;44942;48.936;8.260;2023-02-28T14:20:49;2.45;;;1.52;;
59161;SDS011;44942;48.936;8.260;2023-02-28T14:26:11;2.70;;;1.70;;
59161;SDS011;44942;48.936;8.260;2023-02-28T14:31:29;2.25;;;1.73;;
59161;SDS011;44942;48.936;8.260;2023-02-28T14:36:36;2.10;;;1.63;;
59161;SDS011;44942;48.936;8.260;2023-02-28T14:41:40;2.00;;;1.80;;
59161;SDS011;44942;48.936;8.260;2023-02-28T14:46:43;1.80;;;1.70;;
59161;SDS011;44942;48.936;8.260;2023-02-28T14:51:44;1.77;;;1.58;;
59161;SDS011;44942;48.936;8.260;2023-02-28T14:56:48;2.50;;;1.73;;
59161;SDS011;44942;48.936;8.260;2023-02-28T15:01:50;2.00;;;1.60;;
59161;SDS011;44942;48.936;8.260;2023-02-28T15:07:09;1.80;;;1.65;;
59161;SDS011;44942;48.936;8.260;2023-02-28T15:12:13;1.70;;;1.60;;
59161;SDS011;44942;48.936;8.260;2023-02-28T15:17:17;2.35;;;1.70;;
59161;SDS011;44942;48.936;8.260;2023-02-28T15:22:34;2.85;;;1.67;;
59161;SDS011;44942;48.936;8.260;2023-02-28T15:27:38;1.90;;;1.70;;
59161;SDS011;44942;48.936;8.260;2023-02-28T15:32:45;2.08;;;1.88;;
59161;SDS011;44942;48.936;8.260;2023-02-28T15:38:03;1.70;;;1.52;;
59161;SDS011;44942;48.936;8.260;2023-02-28T15:43:31;2.20;;;1.83;;
59161;SDS011;44942;48.936;8.260;2023-02-28T15:48:38;2.15;;;1.90;;
59161;SDS011;44942;48.936;8.260;2023-02-28T15:58:56;2.47;;;1.95;;
59161;SDS011;44942;48.936;8.260;2023-02-28T16:04:03;2.70;;;1.88;;
59161;SDS011;44942;48.936;8.260;2023-02-28T16:09:08;3.20;;;2.20;;
59161;SDS011;44942;48.936;8.260;2023-02-28T16:14:17;4.95;;;2.33;;
59161;SDS011;44942;48.936;8.260;2023-02-28T16:19:20;4.63;;;2.45;;
59161;SDS011;44942;48.936;8.260;2023-02-28T16:24:21;4.75;;;2.42;;
59161;SDS011;44942;48.936;8.260;2023-02-28T16:29:26;6.53;;;2.70;;
59161;SDS011;44942;48.936;8.260;2023-02-28T16:34:30;5.47;;;2.95;;
59161;SDS011;44942;48.936;8.260;2023-02-28T16:39:31;5.63;;;2.60;;
59161;SDS011;44942;48.936;8.260;2023-02-28T16:44:33;5.80;;;2.57;;
59161;SDS011;44942;48.936;8.260;2023-02-28T16:49:35;5.60;;;2.92;;
59161;SDS011;44942;48.936;8.260;2023-02-28T16:54:36;4.47;;;2.90;;
59161;SDS011;44942;48.936;8.260;2023-02-28T16:59:36;6.40;;;2.87;;
59161;SDS011;44942;48.936;8.260;2023-02-28T17:04:37;4.33;;;2.60;;
59161;SDS011;44942;48.936;8.260;2023-02-28T17:09:37;5.33;;;2.50;;
59161;SDS011;44942;48.936;8.260;2023-02-28T17:14:41;8.50;;;2.77;;
59161;SDS011;44942;48.936;8.260;2023-02-28T17:19:42;5.85;;;2.55;;
59161;SDS011;44942;48.936;8.260;2023-02-28T17:24:43;4.90;;;2.83;;
59161;SDS011;44942;48.936;8.260;2023-02-28T17:29:45;5.70;;;2.78;;
59161;SDS011;44942;48.936;8.260;2023-02-28T17:34:47;5.00;;;2.35;;
59161;SDS011;44942;48.936;8.260;2023-02-28T17:39:47;3.10;;;2.23;;
59161;SDS011;44942;48.936;8.260;2023-02-28T17:44:48;4.27;;;2.53;;
59161;SDS011;44942;48.936;8.260;2023-02-28T17:49:48;4.87;;;2.37;;
59161;SDS011;44942;48.936;8.260;2023-02-28T17:54:49;3.73;;;2.30;;
59161;SDS011;44942;48.936;8.260;2023-02-28T17:59:49;3.33;;;2.20;;
59161;SDS011;44942;48.936;8.260;2023-02-28T18:04:50;3.50;;;2.40;;
59161;SDS011;44942;48.936;8.260;2023-02-28T18:09:50;5.67;;;2.40;;
59161;SDS011;44942;48.936;8.260;2023-02-28T18:14:51;3.73;;;2.37;;
59161;SDS011;44942;48.936;8.260;2023-02-28T18:19:51;3.33;;;2.17;;
59161;SDS011;44942;48.936;8.260;2023-02-28T18:24:52;3.57;;;2.40;;
59161;SDS011;44942;48.936;8.260;2023-02-28T18:29:52;4.90;;;2.50;;
59161;SDS011;44942;48.936;8.260;2023-02-28T18:34:53;3.13;;;1.73;;
59161;SDS011;44942;48.936;8.260;2023-02-28T18:39:54;5.23;;;2.27;;
59161;SDS011;44942;48.936;8.260;2023-02-28T18:44:54;3.23;;;2.27;;
59161;SDS011;44942;48.936;8.260;2023-02-28T18:49:55;4.93;;;2.47;;
59161;SDS011;44942;48.936;8.260;2023-02-28T18:54:55;2.77;;;2.17;;
59161;SDS011;44942;48.936;8.260;2023-02-28T18:59:56;3.70;;;2.60;;
59161;SDS011;44942;48.936;8.260;2023-02-28T19:04:56;3.37;;;2.03;;
59161;SDS011;44942;48.936;8.260;2023-02-28T19:09:57;2.30;;;2.00;;
59161;SDS011;44942;48.936;8.260;2023-02-28T19:14:58;3.87;;;2.30;;
59161;SDS011;44942;48.936;8.260;2023-02-28T19:20:02;3.92;;;2.28;;
59161;SDS011;44942;48.936;8.260;2023-02-28T19:25:04;3.42;;;2.20;;
59161;SDS011;44942;48.936;8.260;2023-02-28T19:30:05;3.30;;;1.90;;
59161;SDS011;44942;48.936;8.260;2023-02-28T19:40:18;3.08;;;2.08;;
59161;SDS011;44942;48.936;8.260;2023-02-28T19:45:21;3.58;;;2.40;;
59161;SDS011;44942;48.936;8.260;2023-02-28T19:50:22;3.43;;;2.20;;
59161;SDS011;44942;48.936;8.260;2023-02-28T19:55:23;2.30;;;2.10;;
59161;SDS011;44942;48.936;8.260;2023-02-28T20:00:26;2.40;;;2.13;;
59161;SDS011;44942;48.936;8.260;2023-02-28T20:05:27;3.65;;;2.13;;
59161;SDS011;44942;48.936;8.260;2023-02-28T20:10:27;3.07;;;2.10;;
59161;SDS011;44942;48.936;8.260;2023-02-28T20:15:29;2.70;;;2.10;;
59161;SDS011;44942;48.936;8.260;2023-02-28T20:20:31;2.53;;;2.00;;
59161;SDS011;44942;48.936;8.260;2023-02-28T20:25:37;4.80;;;2.15;;
59161;SDS011;44942;48.936;8.260;2023-02-28T20:30:39;2.97;;;2.13;;
59161;SDS011;44942;48.936;8.260;2023-02-28T20:40:41;2.50;;;2.20;;
59161;SDS011;44942;48.936;8.260;2023-02-28T20:45:49;3.27;;;2.43;;
59161;SDS011;44942;48.936;8.260;2023-02-28T20:51:03;2.78;;;2.00;;
59161;SDS011;44942;48.936;8.260;2023-02-28T20:56:05;2.70;;;2.03;;
59161;SDS011;44942;48.936;8.260;2023-02-28T21:01:16;3.00;;;2.10;;
59161;SDS011;44942;48.936;8.260;2023-02-28T21:06:26;2.53;;;2.10;;
59161;SDS011;44942;48.936;8.260;2023-02-28T21:11:28;2.33;;;2.00;;
59161;SDS011;44942;48.936;8.260;2023-02-28T21:16:30;2.47;;;2.20;;
59161;SDS011;44942;48.936;8.260;2023-02-28T21:21:32;2.35;;;2.00;;
59161;SDS011;44942;48.936;8.260;2023-02-28T21:26:35;2.83;;;2.30;;
59161;SDS011;44942;48.936;8.260;2023-02-28T21:31:37;2.67;;;2.22;;
59161;SDS011;44942;48.936;8.260;2023-02-28T21:36:40;2.50;;;2.30;;
59161;SDS011;44942;48.936;8.260;2023-02-28T21:41:44;3.25;;;2.38;;
59161;SDS011;44942;48.936;8.260;2023-02-28T21:46:45;2.88;;;2.28;;
59161;SDS011;44942;48.936;8.260;2023-02-28T21:51:47;2.55;;;1.90;;
59161;SDS011;44942;48.936;8.260;2023-02-28T21:56:48;2.70;;;2.20;;
59161;SDS011;44942;48.936;8.260;2023-02-28T22:01:49;11.80;;;2.65;;
59161;SDS011;44942;48.936;8.260;2023-02-28T22:06:51;12.50;;;2.50;;
59161;SDS011;44942;48.936;8.260;2023-02-28T22:11:56;4.93;;;2.33;;
59161;SDS011;44942;48.936;8.260;2023-02-28T22:16:57;4.35;;;2.10;;
59161;SDS011;44942;48.936;8.260;2023-02-28T22:22:02;5.65;;;2.22;;
59161;SDS011;44942;48.936;8.260;2023-02-28T22:27:03;3.83;;;2.25;;
59161;SDS011;44942;48.936;8.260;2023-02-28T22:32:06;9.10;;;2.47;;
59161;SDS011;44942;48.936;8.260;2023-02-28T22:37:07;4.78;;;2.25;;
59161;SDS011;44942;48.936;8.260;2023-02-28T22:42:08;4.10;;;2.37;;
59161;SDS011;44942;48.936;8.260;2023-02-28T22:47:09;3.40;;;2.47;;
59161;SDS011;44942;48.936;8.260;2023-02-28T22:52:09;3.23;;;2.40;;
59161;SDS011;44942;48.936;8.260;2023-02-28T22:57:10;3.17;;;2.43;;
59161;SDS011;44942;48.936;8.260;2023-02-28T23:02:11;4.35;;;2.60;;
59161;SDS011;44942;48.936;8.260;2023-02-28T23:07:12;2.93;;;2.63;;
59161;SDS011;44942;48.936;8.260;2023-02-28T23:12:14;2.88;;;2.40;;
59161;SDS011;44942;48.936;8.260;2023-02-28T23:17:14;2.73;;;2.40;;
59161;SDS011;44942;48.936;8.260;2023-02-28T23:22:15;4.57;;;2.57;;
59161;SDS011;44942;48.936;8.260;2023-02-28T23:27:15;3.60;;;2.50;;
59161;SDS011;44942;48.936;8.260;2023-02-28T23:32:16;3.73;;;2.80;;
59161;SDS011;44942;48.936;8.260;2023-02-28T23:37:16;3.27;;;2.50;;
59161;SDS011;44942;48.936;8.260;2023-02-28T23:42:17;3.55;;;2.67;;
59161;SDS011;44942;48.936;8.260;2023-02-28T23:47:18;2.75;;;2.53;;
59161;SDS011;44942;48.936;8.260;2023-02-28T23:52:19;3.60;;;2.70;;
59161;SDS011;44942;48.936;8.260;2023-02-28T23:57:19;2.83;;;2.50;;
